Florid, Illinois
Current Conditions -  °F | °C
As of 8:15 PM on Friday 24 Oct 2014 (Local Time) from KVYS Reporting Station
Overcast Overcast  
Wind Chill: 60°   Ceiling: 7000
Heat Index: 60°   Visibility: 10mi
Dew Point: 49°   Wind: 12mph
Humidity: 65%   Direction: 190°S
Pressure: 29.95"   Gusts: NA
Location:  41.2233°N, 89.3007°W
Report Text: KVYS 250115Z AUTO 19010KT 10SM SCT043 SCT060 OVC070 16/09 A2995 RMK AO2 T01570092
Loading
Personal Weather Stations






























Interactive Weather Map
Tropical Storm Tracking
New forecast layout! Learn more

10-Day Weather Forecast

Advertisements
Track Severe Weather on mobile